createdAt,value
2022-11-21T00:01:20.758Z,25.00
2022-11-21T00:03:49.289Z,25.00
2022-11-21T00:06:18.056Z,25.00
2022-11-21T00:08:46.698Z,25.00
2022-11-21T00:11:15.472Z,25.00
2022-11-21T00:13:44.388Z,25.00
2022-11-21T00:16:14.428Z,25.00
2022-11-21T00:18:43.749Z,25.00
2022-11-21T00:21:13.954Z,25.10
2022-11-21T00:23:42.711Z,25.10
2022-11-21T00:26:12.514Z,25.20
2022-11-21T00:28:41.117Z,25.20
2022-11-21T00:31:09.715Z,25.20
2022-11-21T00:33:40.136Z,25.30
2022-11-21T00:36:10.066Z,25.30
2022-11-21T00:38:38.984Z,25.30
2022-11-21T00:41:07.751Z,25.30
2022-11-21T00:43:36.793Z,25.30
2022-11-21T00:46:05.710Z,25.30
2022-11-21T00:48:34.355Z,25.30
2022-11-21T00:51:03.459Z,25.30
2022-11-21T00:53:32.210Z,25.30
2022-11-21T00:56:01.009Z,25.40
2022-11-21T00:58:29.758Z,25.40
2022-11-21T01:01:09.307Z,25.40
2022-11-21T01:03:39.240Z,25.40
2022-11-21T01:06:09.267Z,25.50
2022-11-21T01:08:38.841Z,25.50
2022-11-21T01:11:08.626Z,25.50
2022-11-21T01:13:37.680Z,25.50
2022-11-21T01:16:10.733Z,25.60
2022-11-21T01:18:39.451Z,25.60
2022-11-21T01:21:10.330Z,25.70
2022-11-21T01:23:39.029Z,25.70
2022-11-21T01:26:09.223Z,25.80
2022-11-21T01:28:37.695Z,25.80
2022-11-21T01:31:07.563Z,25.90
2022-11-21T01:33:36.825Z,25.90
2022-11-21T01:36:21.518Z,25.90
2022-11-21T01:38:50.832Z,26.00
2022-11-21T01:41:21.357Z,26.10
2022-11-21T01:43:50.875Z,26.10
2022-11-21T01:46:20.509Z,26.20
2022-11-21T01:48:51.123Z,26.20
2022-11-21T01:51:35.465Z,26.30
2022-11-21T01:54:05.509Z,26.30
2022-11-21T01:56:38.235Z,26.40
2022-11-21T01:59:08.474Z,26.50
2022-11-21T02:01:37.713Z,26.50
2022-11-21T02:04:07.011Z,26.60
2022-11-21T02:06:38.702Z,26.70
2022-11-21T02:09:08.772Z,26.70
2022-11-21T02:11:41.311Z,26.80
2022-11-21T02:14:10.749Z,26.90
2022-11-21T02:16:40.236Z,26.90
2022-11-21T02:19:12.531Z,26.90
2022-11-21T02:21:48.691Z,27.00
2022-11-21T02:24:22.531Z,27.00
2022-11-21T02:26:51.427Z,27.00
2022-11-21T02:29:19.986Z,27.00
2022-11-21T02:31:48.693Z,27.00
2022-11-21T02:34:17.130Z,27.00
2022-11-21T02:36:47.102Z,27.00
2022-11-21T02:39:21.898Z,27.00
2022-11-21T02:41:54.548Z,27.10
2022-11-21T02:44:28.369Z,27.10
2022-11-21T02:46:57.036Z,27.10
2022-11-21T02:49:31.793Z,27.20
2022-11-21T02:52:00.170Z,27.30
2022-11-21T02:54:29.016Z,27.40
2022-11-21T02:56:58.616Z,27.50
2022-11-21T02:59:27.103Z,27.50
2022-11-21T03:01:55.682Z,27.60
2022-11-21T03:04:24.572Z,27.60
2022-11-21T03:06:53.500Z,27.70
2022-11-21T03:09:21.976Z,27.70
2022-11-21T03:11:50.757Z,27.70
2022-11-21T03:14:19.321Z,27.70
2022-11-21T03:16:48.083Z,27.60
2022-11-21T03:19:16.884Z,27.70
2022-11-21T03:21:45.713Z,27.70
2022-11-21T03:24:14.206Z,27.70
2022-11-21T03:26:42.722Z,27.70
2022-11-21T03:29:11.177Z,27.90
2022-11-21T03:31:39.618Z,28.00
2022-11-21T03:34:08.417Z,28.10
2022-11-21T03:36:36.931Z,28.20
2022-11-21T03:39:06.021Z,28.20
2022-11-21T03:41:34.621Z,28.30
2022-11-21T03:44:07.992Z,28.30
2022-11-21T03:46:38.263Z,28.30
2022-11-21T03:49:07.206Z,28.40
2022-11-21T03:51:36.049Z,28.50
2022-11-21T03:54:05.238Z,28.50
2022-11-21T03:56:34.194Z,28.60
2022-11-21T03:59:02.865Z,28.60
2022-11-21T04:01:36.142Z,28.70
2022-11-21T04:04:05.596Z,28.70
2022-11-21T04:06:34.438Z,28.80
2022-11-21T04:09:03.279Z,28.80
2022-11-21T04:11:32.965Z,28.90
2022-11-21T04:14:01.549Z,28.90
2022-11-21T04:16:30.272Z,28.90
2022-11-21T04:18:59.159Z,28.90
2022-11-21T04:21:27.997Z,29.00
2022-11-21T04:23:56.392Z,28.90
2022-11-21T04:26:24.861Z,28.90
2022-11-21T04:28:53.209Z,28.90
2022-11-21T04:31:21.644Z,29.00
2022-11-21T04:33:52.506Z,29.00
2022-11-21T04:36:21.059Z,29.00
2022-11-21T04:38:49.571Z,29.00
2022-11-21T04:41:17.912Z,28.90
2022-11-21T04:43:46.374Z,29.00
2022-11-21T04:46:15.594Z,29.00
2022-11-21T04:48:44.292Z,29.00
2022-11-21T04:51:12.870Z,29.00
2022-11-21T04:53:43.051Z,29.10
2022-11-21T04:56:12.346Z,29.10
2022-11-21T04:58:40.889Z,29.20
2022-11-21T05:01:10.169Z,29.20
2022-11-21T05:03:38.716Z,29.20
2022-11-21T05:06:07.848Z,29.20
2022-11-21T05:08:36.372Z,29.20
2022-11-21T05:11:24.276Z,29.20
2022-11-21T05:13:54.508Z,29.20
2022-11-21T05:16:23.312Z,29.20
2022-11-21T05:18:52.248Z,29.20
2022-11-21T05:21:20.776Z,29.20
2022-11-21T05:23:49.561Z,29.20
2022-11-21T05:26:18.081Z,29.30
2022-11-21T05:28:49.018Z,29.20
2022-11-21T05:31:17.480Z,29.30
2022-11-21T05:33:45.941Z,29.30
2022-11-21T05:36:14.783Z,29.30
2022-11-21T05:38:43.370Z,29.40
2022-11-21T05:41:11.784Z,29.40
2022-11-21T05:43:47.788Z,29.40
2022-11-21T05:46:18.620Z,29.50
2022-11-21T05:48:48.100Z,29.50
2022-11-21T05:51:17.353Z,29.50
2022-11-21T05:53:46.824Z,29.50
2022-11-21T05:56:16.814Z,29.50
2022-11-21T05:58:45.961Z,29.60
2022-11-21T06:01:16.499Z,29.70
2022-11-21T06:03:44.908Z,29.70
2022-11-21T06:06:14.776Z,29.80
2022-11-21T06:08:44.834Z,29.80
2022-11-21T06:11:14.699Z,29.80
2022-11-21T06:13:43.717Z,29.80
2022-11-21T06:16:15.887Z,29.80
2022-11-21T06:18:45.367Z,29.80
2022-11-21T06:21:15.578Z,29.90
2022-11-21T06:23:44.025Z,30.00
2022-11-21T06:26:16.354Z,30.00
2022-11-21T06:28:45.337Z,30.10
2022-11-21T06:31:16.011Z,30.20
2022-11-21T06:33:45.094Z,30.20
2022-11-21T06:36:14.992Z,30.30
2022-11-21T06:38:44.256Z,30.30
2022-11-21T06:41:14.585Z,30.30
2022-11-21T06:43:45.769Z,30.40
2022-11-21T06:46:14.608Z,30.30
2022-11-21T06:48:43.560Z,30.30
2022-11-21T06:51:18.368Z,30.40
2022-11-21T06:53:46.984Z,30.40
2022-11-21T06:56:16.586Z,30.40
2022-11-21T06:58:45.486Z,30.40
2022-11-21T07:01:14.851Z,30.40
2022-11-21T07:03:43.952Z,30.50
2022-11-21T07:06:12.705Z,30.50
2022-11-21T07:08:42.302Z,30.50
2022-11-21T07:11:27.510Z,30.50
2022-11-21T07:13:56.385Z,30.50
2022-11-21T07:16:27.113Z,30.50
2022-11-21T07:18:55.607Z,30.50
2022-11-21T07:21:24.028Z,30.50
2022-11-21T07:23:52.410Z,30.60
2022-11-21T07:26:21.263Z,30.60
2022-11-21T07:28:49.701Z,30.70
2022-11-21T07:31:18.491Z,30.70
2022-11-21T07:33:49.039Z,30.70
2022-11-21T07:36:17.351Z,30.70
2022-11-21T07:38:47.670Z,30.70
2022-11-21T07:41:16.237Z,30.70
2022-11-21T07:43:45.174Z,30.80
2022-11-21T07:46:14.018Z,30.80
2022-11-21T07:48:42.448Z,30.80
2022-11-21T07:51:11.652Z,30.80
2022-11-21T07:53:40.482Z,30.80
2022-11-21T07:56:11.236Z,30.80
2022-11-21T07:58:40.164Z,30.80
2022-11-21T08:01:08.932Z,30.80
2022-11-21T08:03:37.636Z,30.80
2022-11-21T08:06:06.501Z,30.80
2022-11-21T08:08:35.003Z,30.70
2022-11-21T08:11:06.377Z,30.70
2022-11-21T08:13:35.383Z,30.60
2022-11-21T08:16:04.901Z,30.60
2022-11-21T08:18:33.560Z,30.60
2022-11-21T08:21:03.016Z,30.50
2022-11-21T08:23:31.788Z,30.50
2022-11-21T08:26:00.906Z,30.50
2022-11-21T08:28:31.975Z,30.40
2022-11-21T08:31:00.474Z,30.40
2022-11-21T08:33:29.189Z,30.40
2022-11-21T08:35:58.034Z,30.40
2022-11-21T08:38:26.526Z,30.40
2022-11-21T08:41:17.595Z,30.40
2022-11-21T08:43:46.898Z,30.40
2022-11-21T08:46:15.687Z,30.40
2022-11-21T08:48:44.466Z,30.30
2022-11-21T08:51:13.342Z,30.30
2022-11-21T08:53:41.930Z,30.20
2022-11-21T08:56:10.659Z,30.20
2022-11-21T08:58:39.601Z,30.20
2022-11-21T09:01:08.172Z,30.20
2022-11-21T09:03:36.611Z,30.20
2022-11-21T09:06:05.082Z,30.10
2022-11-21T09:08:33.894Z,30.10
2022-11-21T09:11:07.067Z,30.10
2022-11-21T09:13:36.425Z,30.00
2022-11-21T09:16:25.191Z,30.00
2022-11-21T09:18:54.368Z,30.00
2022-11-21T09:21:23.173Z,29.90
2022-11-21T09:23:51.581Z,29.90
2022-11-21T09:26:20.664Z,29.90
2022-11-21T09:28:49.104Z,29.90
2022-11-21T09:31:17.533Z,29.90
2022-11-21T09:33:47.810Z,29.90
2022-11-21T09:36:18.429Z,29.90
2022-11-21T09:38:46.973Z,29.90
2022-11-21T09:41:45.605Z,29.90
2022-11-21T09:44:18.318Z,29.80
2022-11-21T09:46:48.648Z,29.80
2022-11-21T09:49:17.812Z,29.80
2022-11-21T09:51:47.132Z,29.80
2022-11-21T09:54:20.719Z,29.80
2022-11-21T09:56:49.590Z,29.70
2022-11-21T09:59:38.287Z,29.70
2022-11-21T10:02:23.232Z,29.70
2022-11-21T10:04:52.746Z,29.60
2022-11-21T10:07:30.928Z,29.60
2022-11-21T10:10:15.417Z,29.60
2022-11-21T10:12:50.081Z,29.60
2022-11-21T10:15:33.335Z,29.50
2022-11-21T10:18:02.652Z,29.50
2022-11-21T10:20:47.220Z,29.50
2022-11-21T10:23:35.902Z,29.40
2022-11-21T10:26:14.914Z,29.40
2022-11-21T10:28:44.245Z,29.40
2022-11-21T10:31:14.429Z,29.30
2022-11-21T10:33:44.406Z,29.30
2022-11-21T10:36:23.823Z,29.20
2022-11-21T10:38:53.623Z,29.10
2022-11-21T10:41:27.429Z,29.10
2022-11-21T10:44:35.321Z,29.00
2022-11-21T10:47:04.196Z,29.00
2022-11-21T10:49:36.269Z,28.90
2022-11-21T10:52:11.603Z,28.80
2022-11-21T10:54:59.712Z,28.80
2022-11-21T10:57:31.092Z,28.70
2022-11-21T11:00:02.647Z,28.60
2022-11-21T11:02:31.461Z,28.60
2022-11-21T11:05:19.558Z,28.50
2022-11-21T11:08:04.381Z,28.50
2022-11-21T11:10:34.595Z,28.40
2022-11-21T11:13:51.285Z,28.40
2022-11-21T11:16:11.807Z,28.30
2022-11-21T11:18:47.372Z,28.30
2022-11-21T11:21:35.458Z,28.30
2022-11-21T11:24:24.377Z,28.20
2022-11-21T11:26:57.752Z,28.20
2022-11-21T11:29:29.743Z,28.20
2022-11-21T11:32:03.020Z,28.20
2022-11-21T11:34:51.159Z,28.10
2022-11-21T11:37:40.011Z,28.10
2022-11-21T11:40:28.854Z,28.10
2022-11-21T11:43:36.568Z,28.10
2022-11-21T11:46:25.328Z,28.00
2022-11-21T11:49:19.201Z,28.10
2022-11-21T11:51:48.833Z,28.00
2022-11-21T11:54:20.084Z,28.00
2022-11-21T11:56:48.916Z,28.00
2022-11-21T11:59:19.230Z,28.00
2022-11-21T12:01:48.699Z,28.00
2022-11-21T12:04:20.744Z,28.00
2022-11-21T12:07:52.743Z,28.00
2022-11-21T12:09:49.826Z,27.90
2022-11-21T12:12:33.246Z,27.90
2022-11-21T12:15:37.232Z,27.90
2022-11-21T12:18:06.540Z,27.90
2022-11-21T12:20:37.931Z,27.80
2022-11-21T12:23:07.562Z,27.80
2022-11-21T12:25:39.931Z,27.80
2022-11-21T12:28:14.897Z,27.80
2022-11-21T12:31:02.907Z,27.80
2022-11-21T12:33:33.456Z,27.80
2022-11-21T12:36:17.278Z,27.70
2022-11-21T12:39:03.039Z,27.70
2022-11-21T12:41:52.528Z,27.70
2022-11-21T12:44:41.184Z,27.60
2022-11-21T12:47:29.215Z,27.60
2022-11-21T12:50:18.881Z,27.60
2022-11-21T12:53:11.537Z,27.50
2022-11-21T12:55:41.585Z,27.50
2022-11-21T12:58:26.289Z,27.50
2022-11-21T13:00:56.622Z,27.50
2022-11-21T13:03:29.539Z,27.50
2022-11-21T13:05:58.786Z,27.50
2022-11-21T13:08:28.799Z,27.50
2022-11-21T13:11:22.598Z,27.50
2022-11-21T13:13:53.539Z,27.40
2022-11-21T13:16:45.240Z,27.40
2022-11-21T13:19:22.850Z,27.40
2022-11-21T13:21:53.915Z,27.40
2022-11-21T13:24:42.266Z,27.40
2022-11-21T13:27:32.073Z,27.30
2022-11-21T13:30:12.867Z,27.30
2022-11-21T13:32:42.918Z,27.30
2022-11-21T13:35:27.411Z,27.30
2022-11-21T13:38:04.532Z,27.30
2022-11-21T13:40:34.528Z,27.30
2022-11-21T13:43:35.973Z,27.20
2022-11-21T13:46:05.119Z,27.20
2022-11-21T13:48:42.117Z,27.20
2022-11-21T13:51:11.996Z,27.20
2022-11-21T13:54:00.141Z,27.10
2022-11-21T13:56:38.735Z,27.10
2022-11-21T13:59:16.640Z,27.10
2022-11-21T14:01:49.363Z,27.10
2022-11-21T14:04:20.236Z,27.10
2022-11-21T14:06:49.191Z,27.00
2022-11-21T14:09:22.107Z,27.00
2022-11-21T14:11:51.512Z,27.00
2022-11-21T14:14:28.106Z,27.00
2022-11-21T14:17:02.845Z,27.00
2022-11-21T14:19:33.390Z,27.00
2022-11-21T14:22:02.133Z,27.00
2022-11-21T14:24:31.793Z,26.90
2022-11-21T14:27:00.580Z,26.90
2022-11-21T14:29:41.948Z,26.90
2022-11-21T14:32:18.090Z,26.90
2022-11-21T14:34:47.079Z,26.90
2022-11-21T14:37:15.546Z,26.90
2022-11-21T14:39:45.166Z,26.90
2022-11-21T14:42:16.581Z,26.80
2022-11-21T14:44:45.440Z,26.80
2022-11-21T14:47:25.253Z,26.80
2022-11-21T14:49:56.960Z,26.70
2022-11-21T14:52:30.476Z,26.70
2022-11-21T14:55:29.601Z,26.70
2022-11-21T14:57:49.961Z,26.70
2022-11-21T15:00:58.529Z,26.70
2022-11-21T15:03:25.772Z,26.70
2022-11-21T15:06:12.214Z,26.70
2022-11-21T15:11:49.240Z,26.60
2022-11-21T15:14:37.255Z,26.60
2022-11-21T15:17:07.906Z,26.60
2022-11-21T15:19:36.861Z,26.60
2022-11-21T15:22:06.049Z,26.50
2022-11-21T15:24:39.005Z,26.50
2022-11-21T15:27:27.191Z,26.50
2022-11-21T15:30:15.548Z,26.50
2022-11-21T15:33:04.052Z,26.40
2022-11-21T15:35:40.705Z,26.40
2022-11-21T15:38:29.245Z,26.40
2022-11-21T15:40:59.595Z,26.40
2022-11-21T15:43:36.466Z,26.30
2022-11-21T15:46:06.292Z,26.40
2022-11-21T15:48:35.081Z,26.40
2022-11-21T15:51:04.610Z,26.30
2022-11-21T15:53:33.213Z,26.30
2022-11-21T15:56:02.004Z,26.30
2022-11-21T15:58:30.639Z,26.30
2022-11-21T16:01:00.409Z,26.30
2022-11-21T16:03:29.284Z,26.20
2022-11-21T16:05:58.077Z,26.20
2022-11-21T16:08:26.924Z,26.20
2022-11-21T16:10:55.825Z,26.10
2022-11-21T16:13:24.480Z,26.10
2022-11-21T16:15:53.043Z,26.00
2022-11-21T16:18:21.993Z,26.00
2022-11-21T16:20:50.789Z,25.90
2022-11-21T16:23:19.317Z,25.90
2022-11-21T16:25:56.080Z,25.90
2022-11-21T16:28:24.940Z,25.90
2022-11-21T16:30:53.973Z,25.80
2022-11-21T16:33:27.063Z,25.80
2022-11-21T16:35:58.456Z,25.80
2022-11-21T16:38:29.477Z,25.80
2022-11-21T16:40:59.153Z,25.80
2022-11-21T16:43:28.267Z,25.80
2022-11-21T16:45:57.123Z,25.80
2022-11-21T16:48:25.967Z,25.70
2022-11-21T16:50:54.460Z,25.80
2022-11-21T16:53:23.462Z,25.70
2022-11-21T16:56:00.912Z,25.70
2022-11-21T16:58:29.749Z,25.70
2022-11-21T17:01:23.125Z,25.60
2022-11-21T17:03:54.177Z,25.60
2022-11-21T17:06:24.048Z,25.60
2022-11-21T17:08:52.853Z,25.50
2022-11-21T17:11:24.072Z,25.50
2022-11-21T17:13:52.749Z,25.50
2022-11-21T17:16:22.140Z,25.50
2022-11-21T17:18:58.759Z,25.50
2022-11-21T17:21:28.028Z,25.40
2022-11-21T17:23:56.591Z,25.50
2022-11-21T17:26:27.914Z,25.40
2022-11-21T17:28:57.709Z,25.40
2022-11-21T17:31:26.876Z,25.40
2022-11-21T17:33:57.759Z,25.40
2022-11-21T17:36:28.380Z,25.40
2022-11-21T17:38:57.357Z,25.30
2022-11-21T17:41:26.802Z,25.30
2022-11-21T17:43:56.677Z,25.30
2022-11-21T17:46:26.561Z,25.30
2022-11-21T17:48:58.265Z,25.30
2022-11-21T17:51:29.173Z,25.30
2022-11-21T17:53:58.281Z,25.30
2022-11-21T17:56:28.088Z,25.30
2022-11-21T17:58:57.131Z,25.30
2022-11-21T18:01:25.846Z,25.30
2022-11-21T18:03:57.725Z,25.30
2022-11-21T18:06:27.389Z,25.20
2022-11-21T18:08:56.689Z,25.30
2022-11-21T18:11:25.492Z,25.30
2022-11-21T18:13:54.620Z,25.30
2022-11-21T18:16:24.493Z,25.30
2022-11-21T18:18:52.981Z,25.30
2022-11-21T18:21:22.767Z,25.20
2022-11-21T18:23:51.704Z,25.20
2022-11-21T18:26:22.688Z,25.20
2022-11-21T18:29:07.294Z,25.20
2022-11-21T18:31:40.491Z,25.20
2022-11-21T18:34:08.986Z,25.10
2022-11-21T18:36:37.784Z,25.10
2022-11-21T18:39:13.599Z,25.20
2022-11-21T18:41:43.166Z,25.10
2022-11-21T18:44:17.050Z,25.10
2022-11-21T18:46:49.501Z,25.10
2022-11-21T18:49:18.321Z,25.00
2022-11-21T18:51:48.452Z,25.10
2022-11-21T18:54:17.128Z,25.00
2022-11-21T18:56:46.977Z,25.10
2022-11-21T18:59:15.972Z,25.10
2022-11-21T19:01:44.947Z,25.00
2022-11-21T19:04:13.795Z,25.10
2022-11-21T19:06:42.668Z,25.00
2022-11-21T19:09:12.973Z,25.00
2022-11-21T19:11:42.043Z,25.10
2022-11-21T19:14:10.848Z,25.10
2022-11-21T19:16:39.603Z,25.00
2022-11-21T19:21:57.895Z,25.00
2022-11-21T19:24:26.425Z,25.00
2022-11-21T19:26:54.866Z,25.00
2022-11-21T19:29:23.709Z,25.00
2022-11-21T19:31:52.626Z,24.90
2022-11-21T19:34:21.135Z,24.90
2022-11-21T19:36:49.694Z,24.90
2022-11-21T19:39:19.137Z,24.90
2022-11-21T19:41:49.475Z,24.90
2022-11-21T19:44:17.914Z,24.90
2022-11-21T19:46:46.482Z,24.90
2022-11-21T19:49:14.931Z,24.90
2022-11-21T19:51:43.832Z,24.90
2022-11-21T19:54:13.837Z,24.80
2022-11-21T19:56:42.674Z,24.80
2022-11-21T19:59:12.456Z,24.80
2022-11-21T20:01:41.143Z,24.80
2022-11-21T20:04:10.128Z,24.80
2022-11-21T20:06:39.807Z,24.80
2022-11-21T20:09:10.440Z,24.80
2022-11-21T20:11:40.615Z,24.80
2022-11-21T20:14:09.423Z,24.80
2022-11-21T20:16:40.596Z,24.80
2022-11-21T20:19:10.998Z,24.80
2022-11-21T20:21:39.853Z,24.80
2022-11-21T20:24:08.895Z,24.70
2022-11-21T20:26:37.916Z,24.70
2022-11-21T20:29:07.080Z,24.70
2022-11-21T20:31:37.008Z,24.70
2022-11-21T20:34:06.957Z,24.70
2022-11-21T20:36:37.943Z,24.70
2022-11-21T20:39:08.994Z,24.60
2022-11-21T20:41:37.956Z,24.60
2022-11-21T20:46:55.965Z,24.60
2022-11-21T20:49:24.449Z,24.60
2022-11-21T20:54:41.397Z,24.60
2022-11-21T20:57:14.863Z,24.60
2022-11-21T20:59:44.555Z,24.60
2022-11-21T21:02:14.925Z,24.60
2022-11-21T21:04:43.867Z,24.60
2022-11-21T21:07:12.396Z,24.60
2022-11-21T21:09:41.289Z,24.60
2022-11-21T21:12:09.744Z,24.60
2022-11-21T21:14:38.323Z,24.60
2022-11-21T21:17:07.306Z,24.50
2022-11-21T21:19:36.061Z,24.50
2022-11-21T21:22:06.011Z,24.50
2022-11-21T21:24:34.428Z,24.50
2022-11-21T21:27:03.187Z,24.50
2022-11-21T21:29:32.457Z,24.50
2022-11-21T21:32:01.080Z,24.40
2022-11-21T21:34:30.215Z,24.40
2022-11-21T21:36:59.947Z,24.40
2022-11-21T21:39:28.508Z,24.40
2022-11-21T21:41:57.266Z,24.30
2022-11-21T21:44:31.474Z,24.30
2022-11-21T21:47:01.612Z,24.30
2022-11-21T21:49:30.356Z,24.30
2022-11-21T21:51:58.849Z,24.30
2022-11-21T21:54:27.897Z,24.30
2022-11-21T21:56:56.840Z,24.30
2022-11-21T21:59:28.410Z,24.30
2022-11-21T22:01:57.244Z,24.20
2022-11-21T22:04:26.107Z,24.30
2022-11-21T22:06:54.757Z,24.30
2022-11-21T22:09:23.437Z,24.20
2022-11-21T22:11:52.012Z,24.20
2022-11-21T22:14:20.477Z,24.20
2022-11-21T22:16:48.923Z,24.20
2022-11-21T22:19:17.366Z,24.20
2022-11-21T22:21:46.087Z,24.20
2022-11-21T22:24:31.330Z,24.20
2022-11-21T22:26:59.906Z,24.20
2022-11-21T22:29:28.334Z,24.20
2022-11-21T22:31:56.897Z,24.20
2022-11-21T22:34:25.378Z,24.20
2022-11-21T22:36:53.803Z,24.20
2022-11-21T22:39:22.257Z,24.10
2022-11-21T22:41:50.851Z,24.10
2022-11-21T22:44:20.172Z,24.10
2022-11-21T22:46:48.965Z,24.10
2022-11-21T22:49:17.550Z,24.10
2022-11-21T22:51:46.514Z,24.10
2022-11-21T22:54:15.348Z,24.10
2022-11-21T22:56:43.756Z,24.10
2022-11-21T22:59:15.135Z,24.10
2022-11-21T23:01:44.702Z,24.10
2022-11-21T23:04:17.658Z,24.00
2022-11-21T23:06:58.537Z,24.00
2022-11-21T23:09:27.585Z,24.00
2022-11-21T23:11:56.323Z,24.00
2022-11-21T23:14:24.759Z,23.90
2022-11-21T23:16:53.053Z,23.90
2022-11-21T23:19:21.459Z,23.90
2022-11-21T23:21:50.178Z,23.90
2022-11-21T23:24:18.652Z,23.80
2022-11-21T23:26:47.446Z,23.80
2022-11-21T23:29:16.249Z,23.80
2022-11-21T23:31:45.012Z,23.80
2022-11-21T23:34:14.001Z,23.80
2022-11-21T23:36:42.859Z,23.80
2022-11-21T23:39:11.319Z,23.80
2022-11-21T23:41:40.153Z,23.70
2022-11-21T23:44:08.728Z,23.70
2022-11-21T23:46:37.171Z,23.70
2022-11-21T23:49:06.101Z,23.70
2022-11-21T23:51:34.979Z,23.70
2022-11-21T23:54:03.393Z,23.70
2022-11-21T23:56:31.786Z,23.70
2022-11-21T23:59:00.529Z,23.70
